Time;durP1;ratioP1;P1;durP2;ratioP2;P2;SDS_P1;SDS_P2;PMS_P1;PMS_P2;Temp;Humidity;BMP_temperature;BMP_pressure;BME280_temperature;BME280_humidity;BME280_pressure;Samples;Min_cycle;Max_cycle;Signal;HPM_P1;HPM_P2
2021/12/24 00:01:08;;;;;;;18.17;8.77;;;-2.70;99.90;;;;;;4990349;28;20050;-82
2021/12/24 00:03:36;;;;;;;21.92;8.13;;;-2.70;99.90;;;;;;5000037;28;20082;-83
2021/12/24 00:06:05;;;;;;;18.40;9.23;;;-2.70;99.90;;;;;;4991356;28;20066;-82
2021/12/24 00:08:34;;;;;;;19.00;8.68;;;-2.70;99.90;;;;;;4992897;28;20072;-82
2021/12/24 00:11:02;;;;;;;18.60;9.88;;;-2.80;99.90;;;;;;4994252;28;20104;-82
2021/12/24 00:13:35;;;;;;;21.95;9.82;;;-2.80;99.90;;;;;;4994165;28;20470;-82
2021/12/24 00:16:08;;;;;;;;;;;-2.80;99.90;;;;;;4994359;28;20065;-82
2021/12/24 00:18:43;;;;;;;17.07;8.13;;;-2.80;99.90;;;;;;4982453;28;19976;-81
2021/12/24 00:35:16;;;;;;;16.10;8.68;;;-3.00;99.90;;;;;;4985067;28;20050;-81
2021/12/24 00:37:47;;;;;;;17.38;9.00;;;-2.90;99.90;;;;;;4994421;28;20066;-82
2021/12/24 00:40:19;;;;;;;19.58;9.23;;;-3.00;99.90;;;;;;4984392;28;20042;-81
2021/12/24 00:42:51;;;;;;;19.85;9.10;;;-2.90;99.90;;;;;;4989220;28;20039;-81
2021/12/24 00:45:21;;;;;;;20.48;10.07;;;-2.90;99.90;;;;;;4982563;28;20058;-82
2021/12/24 00:47:50;;;;;;;24.27;10.27;;;-3.00;99.90;;;;;;4965363;28;20077;-83
2021/12/24 00:50:23;;;;;;;21.85;10.07;;;-3.00;99.90;;;;;;4993270;28;20145;-82
2021/12/24 00:52:56;;;;;;;23.20;10.70;;;-3.00;99.90;;;;;;4997776;28;20085;-82
2021/12/24 00:55:28;;;;;;;21.13;9.75;;;-2.90;99.90;;;;;;4990427;28;20054;-82
2021/12/24 00:58:00;;;;;;;21.33;10.40;;;-3.00;99.90;;;;;;4989953;28;20137;-82
2021/12/24 01:00:31;;;;;;;22.35;9.60;;;-3.00;99.90;;;;;;4990799;28;20080;-81
2021/12/24 01:03:03;;;;;;;21.88;11.07;;;-3.00;99.90;;;;;;5006134;28;20058;-82
2021/12/24 01:05:34;;;;;;;25.17;10.90;;;-3.00;99.90;;;;;;4985373;28;20054;-82
2021/12/24 01:08:03;;;;;;;27.50;12.15;;;-3.00;99.90;;;;;;5001573;28;20058;-82
2021/12/24 01:10:35;;;;;;;28.92;11.40;;;-3.10;99.90;;;;;;5006661;28;20050;-82
2021/12/24 01:13:04;;;;;;;23.42;10.82;;;-3.10;99.90;;;;;;4991370;28;20054;-83
2021/12/24 01:15:34;;;;;;;23.58;11.52;;;-3.10;99.90;;;;;;4997345;28;20078;-82
2021/12/24 01:18:09;;;;;;;28.00;10.10;;;-3.10;99.90;;;;;;4992431;28;20499;-82
2021/12/24 01:20:43;;;;;;;18.42;10.30;;;-3.10;99.90;;;;;;4993529;28;20050;-82
2021/12/24 01:26:03;;;;;;;19.13;10.45;;;-3.10;99.90;;;;;;4976588;28;20140;-81
2021/12/24 01:29:00;;;;;;;26.15;11.27;;;-3.10;99.90;;;;;;4994029;28;20144;-81
2021/12/24 01:39:54;;;;;;;24.50;10.45;;;-3.10;99.90;;;;;;5000851;28;20054;-81
2021/12/24 01:42:45;;;;;;;21.70;10.32;;;-3.00;99.90;;;;;;4984322;28;20141;-82
2021/12/24 01:45:24;;;;;;;25.45;12.10;;;-3.00;99.90;;;;;;4984448;28;20333;-82
2021/12/24 01:47:57;;;;;;;22.35;10.23;;;-3.00;99.90;;;;;;4987488;28;20136;-82
2021/12/24 01:50:28;;;;;;;21.95;9.60;;;-2.90;99.90;;;;;;5005372;28;20054;-83
2021/12/24 01:52:57;;;;;;;24.65;11.23;;;-2.90;99.90;;;;;;5000851;28;20145;-83
2021/12/24 01:55:28;;;;;;;23.38;9.38;;;-2.90;99.90;;;;;;4980747;28;20100;-82
2021/12/24 01:57:58;;;;;;;28.30;11.20;;;-2.90;99.90;;;;;;4976072;28;20050;-83
2021/12/24 02:00:30;;;;;;;24.13;11.55;;;-2.90;99.90;;;;;;4988263;28;20109;-82
2021/12/24 02:02:59;;;;;;;22.33;11.30;;;-2.90;99.90;;;;;;4996934;28;20069;-81
2021/12/24 02:05:26;;;;;;;12.85;7.50;;;-2.90;99.90;;;;;;4996994;28;20121;-81
2021/12/24 02:07:54;;;;;;;25.20;10.75;;;-2.90;99.90;;;;;;4996773;28;20073;-81
2021/12/24 02:10:21;;;;;;;23.60;10.10;;;-2.90;99.90;;;;;;5004380;28;20133;-81
2021/12/24 02:12:52;;;;;;;25.73;12.00;;;-2.90;99.90;;;;;;4968029;28;20066;-81
2021/12/24 02:15:31;;;;;;;23.30;10.88;;;-2.90;99.90;;;;;;4978673;28;20061;-82
2021/12/24 02:29:06;;;;;;;24.05;10.13;;;-3.00;99.90;;;;;;4987782;28;20585;-81
2021/12/24 02:31:34;;;;;;;26.90;12.40;;;-3.00;99.90;;;;;;4994826;28;20150;-81
2021/12/24 02:34:02;;;;;;;24.00;11.02;;;-3.00;99.90;;;;;;4987597;28;20051;-79
2021/12/24 02:36:32;;;;;;;21.48;10.93;;;-2.90;99.90;;;;;;4989186;28;20142;-80
2021/12/24 02:38:59;;;;;;;22.55;10.35;;;-2.90;99.90;;;;;;4972001;28;20042;-81
2021/12/24 02:41:27;;;;;;;22.13;10.38;;;-2.90;99.90;;;;;;4995636;28;20125;-81
2021/12/24 02:43:54;;;;;;;25.33;11.68;;;-2.90;99.90;;;;;;4999422;28;20054;-80
2021/12/24 02:46:30;;;;;;;21.70;11.38;;;-2.90;99.90;;;;;;4991331;28;20046;-80
2021/12/24 02:49:05;;;;;;;22.63;11.63;;;-2.90;99.90;;;;;;4992744;28;20051;-81
2021/12/24 02:54:21;;;;;;;24.50;11.63;;;-2.80;99.90;;;;;;4988815;28;20097;-80
2021/12/24 02:56:52;;;;;;;27.52;11.50;;;-2.80;99.90;;;;;;4992586;28;20514;-82
2021/12/24 02:59:25;;;;;;;25.20;11.35;;;-2.80;99.90;;;;;;4975483;28;20051;-81
2021/12/24 03:01:58;;;;;;;24.52;11.10;;;-2.80;99.90;;;;;;4992182;28;20046;-83
2021/12/24 03:04:27;;;;;;;22.33;11.30;;;-2.80;99.90;;;;;;4991772;28;20510;-83
2021/12/24 03:06:56;;;;;;;25.77;11.57;;;-2.80;99.90;;;;;;4970288;28;20065;-82
2021/12/24 03:09:24;;;;;;;23.48;11.27;;;-2.80;99.90;;;;;;4992546;28;20125;-84
2021/12/24 03:11:53;;;;;;;28.63;11.82;;;-2.80;99.90;;;;;;4990971;28;20047;-83
2021/12/24 03:14:22;;;;;;;24.90;11.60;;;-2.80;99.90;;;;;;5005891;28;20050;-83
2021/12/24 03:16:57;;;;;;;22.75;10.55;;;-2.80;99.90;;;;;;4998546;28;20038;-83
2021/12/24 03:19:29;;;;;;;26.67;12.98;;;-2.70;99.90;;;;;;4990110;28;20050;-81
2021/12/24 03:22:05;;;;;;;26.42;12.45;;;-2.70;99.90;;;;;;4974959;28;20506;-80
2021/12/24 03:24:36;;;;;;;19.98;10.93;;;-2.70;99.90;;;;;;4991029;28;20054;-82
2021/12/24 03:27:07;;;;;;;25.20;12.43;;;-2.70;99.90;;;;;;4989938;28;20096;-81
2021/12/24 03:29:36;;;;;;;26.63;11.50;;;-2.70;99.90;;;;;;5016538;28;20054;-82
2021/12/24 03:32:05;;;;;;;21.02;11.13;;;-2.70;99.90;;;;;;4991073;28;20050;-84
2021/12/24 03:34:33;;;;;;;22.25;12.27;;;-2.70;99.90;;;;;;4987023;28;20046;-83
2021/12/24 03:37:04;;;;;;;28.25;13.73;;;-2.70;99.90;;;;;;4980644;28;20046;-82
2021/12/24 03:39:35;;;;;;;22.23;11.73;;;-2.70;99.90;;;;;;4996948;28;20427;-83
2021/12/24 03:42:04;;;;;;;24.50;12.32;;;-2.60;99.90;;;;;;4984448;28;20058;-83
2021/12/24 03:44:37;;;;;;;24.30;12.43;;;-2.60;99.90;;;;;;4990167;28;20073;-82
2021/12/24 03:47:10;;;;;;;22.77;11.65;;;-2.50;99.90;;;;;;4973824;28;20597;-82
2021/12/24 03:49:45;;;;;;;22.90;11.68;;;-2.50;99.90;;;;;;4990689;28;20054;-83
2021/12/24 03:52:23;;;;;;;24.75;12.25;;;-2.50;99.90;;;;;;4987876;28;20058;-79
2021/12/24 03:54:58;;;;;;;24.58;11.40;;;-2.50;99.90;;;;;;4985469;28;20058;-80
2021/12/24 03:57:38;;;;;;;22.40;12.32;;;-2.50;99.90;;;;;;4972863;28;20086;-80
2021/12/24 04:00:21;;;;;;;28.75;11.93;;;-2.40;99.90;;;;;;4984590;28;20065;-80
2021/12/24 04:02:57;;;;;;;23.70;11.02;;;-2.40;99.90;;;;;;4999112;28;20050;-81
2021/12/24 04:05:44;;;;;;;26.83;12.88;;;-2.30;99.90;;;;;;4991371;28;20050;-79
2021/12/24 04:08:41;;;;;;;24.23;12.40;;;-2.30;99.90;;;;;;4982729;28;20050;-79
2021/12/24 04:11:15;;;;;;;29.10;13.05;;;-2.30;99.90;;;;;;4985778;28;20053;-79
2021/12/24 04:13:44;;;;;;;25.63;12.88;;;-2.30;99.90;;;;;;4986868;28;20053;-79
2021/12/24 04:16:11;;;;;;;26.38;12.57;;;-2.20;99.90;;;;;;4993144;28;20041;-80
2021/12/24 04:18:58;;;;;;;23.70;12.32;;;-2.20;99.90;;;;;;4999601;28;20042;-77
2021/12/24 04:26:59;;;;;;;32.55;14.38;;;-2.30;99.90;;;;;;4987287;28;20046;-80
2021/12/24 04:29:28;;;;;;;32.97;15.35;;;-2.30;99.90;;;;;;4978153;28;20055;-81
2021/12/24 04:32:08;;;;;;;25.50;12.95;;;-2.30;99.90;;;;;;4965789;28;20053;-81
2021/12/24 04:34:48;;;;;;;37.60;14.73;;;-2.20;99.90;;;;;;4999604;28;20213;-79
2021/12/24 04:51:27;;;;;;;36.53;15.95;;;-2.00;99.90;;;;;;4994469;28;20495;-83
2021/12/24 05:02:48;;;;;;;45.88;18.85;;;-2.00;99.90;;;;;;4982809;28;20042;-83
2021/12/24 05:05:22;;;;;;;43.47;18.58;;;-2.00;99.90;;;;;;4997840;28;20048;-83
2021/12/24 05:08:17;;;;;;;42.97;19.73;;;-2.00;99.90;;;;;;5019864;28;20129;-82
2021/12/24 05:10:44;;;;;;;41.88;17.95;;;-2.00;99.90;;;;;;4994280;28;20073;-79
2021/12/24 05:13:19;;;;;;;37.50;17.30;;;-1.90;99.90;;;;;;4993129;28;20082;-79
2021/12/24 05:16:23;;;;;;;38.95;18.60;;;-1.90;99.90;;;;;;4971009;28;20057;-80
2021/12/24 05:22:17;;;;;;;44.67;19.77;;;-1.80;99.90;;;;;;4987822;28;20045;-82
2021/12/24 05:24:45;;;;;;;52.15;20.85;;;-1.80;99.90;;;;;;4989715;28;20125;-82
2021/12/24 05:27:13;;;;;;;43.67;19.38;;;-1.80;99.90;;;;;;5001413;28;20462;-81
2021/12/24 05:29:42;;;;;;;35.40;17.00;;;-1.80;99.90;;;;;;5007115;28;20460;-80
2021/12/24 05:32:10;;;;;;;42.38;18.17;;;-1.80;99.90;;;;;;4997217;28;20050;-80
2021/12/24 05:34:37;;;;;;;40.78;17.55;;;-1.80;99.90;;;;;;4995001;28;20067;-82
2021/12/24 05:37:05;;;;;;;43.70;20.08;;;-1.70;99.90;;;;;;4999579;28;20056;-82
2021/12/24 05:39:34;;;;;;;47.75;20.75;;;-1.70;99.90;;;;;;4996801;28;20050;-83
2021/12/24 05:42:04;;;;;;;45.83;20.35;;;-1.70;99.90;;;;;;4989292;28;20519;-83
2021/12/24 05:44:33;;;;;;;49.72;22.10;;;-1.70;99.90;;;;;;4990874;28;20518;-82
2021/12/24 05:47:10;;;;;;;46.60;21.67;;;-1.70;99.90;;;;;;4997540;28;20104;-83
2021/12/24 05:50:01;;;;;;;45.17;20.58;;;-1.70;99.90;;;;;;4981825;28;20076;-81
2021/12/24 05:53:04;;;;;;;41.60;18.77;;;-1.70;99.90;;;;;;4962868;28;20526;-82
2021/12/24 05:55:45;;;;;;;46.10;21.52;;;-1.60;99.90;;;;;;4998386;28;20069;-82
2021/12/24 05:58:22;;;;;;;46.67;19.95;;;-1.60;99.90;;;;;;5003356;28;20055;-82
2021/12/24 06:00:50;;;;;;;44.05;20.85;;;-1.60;99.90;;;;;;4971252;28;20144;-80
2021/12/24 06:03:19;;;;;;;42.33;18.35;;;-1.60;99.90;;;;;;4983442;28;20050;-80
2021/12/24 06:05:47;;;;;;;42.70;21.35;;;-1.50;99.90;;;;;;4990447;28;20061;-81
2021/12/24 06:08:15;;;;;;;40.13;20.15;;;-1.50;99.90;;;;;;4969584;28;20400;-80
2021/12/24 06:10:43;;;;;;;45.00;21.10;;;-1.50;99.90;;;;;;4998737;28;20061;-83
2021/12/24 06:13:11;;;;;;;47.70;21.08;;;-1.50;99.90;;;;;;4993620;28;20534;-80
2021/12/24 06:15:44;;;;;;;45.70;21.00;;;-1.50;99.90;;;;;;4993502;28;20503;-80
2021/12/24 06:18:20;;;;;;;;;;;-1.50;99.90;;;;;;4994099;28;20058;-81
2021/12/24 06:20:49;;;;;;;46.92;19.55;;;-1.40;99.90;;;;;;4974866;28;20007;-82
2021/12/24 06:23:19;;;;;;;40.50;19.45;;;-1.50;99.90;;;;;;4999446;28;20089;-81
2021/12/24 06:25:46;;;;;;;46.92;20.60;;;-1.50;99.90;;;;;;5012855;28;20061;-80
2021/12/24 06:28:13;;;;;;;43.25;21.50;;;-1.40;99.90;;;;;;4992433;28;20121;-83
2021/12/24 06:30:41;;;;;;;43.85;19.90;;;-1.40;99.90;;;;;;4991986;28;20058;-82
2021/12/24 06:33:09;;;;;;;42.83;21.50;;;-1.40;99.90;;;;;;4984350;28;20051;-83
2021/12/24 06:35:38;;;;;;;43.97;20.27;;;-1.40;99.90;;;;;;4983348;28;20581;-84
2021/12/24 06:38:08;;;;;;;38.67;19.65;;;-1.40;99.90;;;;;;4988145;28;20522;-82
2021/12/24 06:40:37;;;;;;;37.22;19.23;;;-1.40;99.90;;;;;;4970020;28;20082;-83
2021/12/24 06:43:07;;;;;;;45.78;21.42;;;-1.30;99.90;;;;;;4993914;28;20552;-83
2021/12/24 06:45:36;;;;;;;37.00;17.67;;;-1.30;99.90;;;;;;4983500;28;20050;-81
2021/12/24 06:48:06;;;;;;;40.25;19.55;;;-1.30;99.90;;;;;;4988214;28;20042;-81
2021/12/24 06:50:34;;;;;;;35.88;17.70;;;-1.30;99.90;;;;;;4978903;28;20051;-82
2021/12/24 06:53:05;;;;;;;37.30;18.75;;;-1.30;99.90;;;;;;4995330;28;20141;-82
2021/12/24 06:55:34;;;;;;;40.28;19.05;;;-1.30;99.90;;;;;;4982321;28;20443;-78
2021/12/24 06:58:09;;;;;;;41.78;20.52;;;-1.30;99.90;;;;;;4995560;28;20055;-82
2021/12/24 07:00:38;;;;;;;50.88;24.48;;;-1.30;99.90;;;;;;4996257;28;20476;-81
2021/12/24 07:03:09;;;;;;;45.53;22.27;;;-1.30;99.90;;;;;;4982189;28;20046;-76
2021/12/24 07:05:36;;;;;;;42.30;20.35;;;-1.30;99.90;;;;;;4981596;28;20050;-81
2021/12/24 07:08:06;;;;;;;38.00;19.17;;;-1.30;99.90;;;;;;4981965;28;20045;-84
2021/12/24 07:10:35;;;;;;;41.63;20.67;;;-1.30;99.90;;;;;;4981982;28;20050;-82
2021/12/24 07:13:02;;;;;;;36.38;18.10;;;-1.30;99.90;;;;;;4987624;28;20422;-80
2021/12/24 07:15:30;;;;;;;41.00;19.45;;;-1.30;99.90;;;;;;4988525;28;20141;-79
2021/12/24 07:17:57;;;;;;;43.70;20.88;;;-1.30;99.90;;;;;;4974048;28;20100;-75
2021/12/24 07:20:25;;;;;;;50.83;22.77;;;-1.30;99.90;;;;;;4988291;28;20459;-79
2021/12/24 07:22:52;;;;;;;49.83;21.08;;;-1.30;99.90;;;;;;4981096;28;20138;-79
2021/12/24 07:25:20;;;;;;;19.88;10.82;;;-1.30;99.90;;;;;;4973140;28;20055;-80
2021/12/24 07:27:49;;;;;;;10.15;5.95;;;-1.30;99.90;;;;;;4988941;28;20586;-82
2021/12/24 07:30:18;;;;;;;10.15;5.88;;;-1.30;99.90;;;;;;4985230;28;20058;-84
2021/12/24 07:32:46;;;;;;;8.65;4.22;;;-1.40;99.90;;;;;;4982711;28;20534;-79
2021/12/24 07:35:14;;;;;;;6.13;4.30;;;-1.40;99.90;;;;;;4981191;28;20149;-84
2021/12/24 07:37:42;;;;;;;9.05;4.85;;;-1.40;99.90;;;;;;4994358;28;20042;-81
2021/12/24 07:40:15;;;;;;;12.15;4.72;;;-1.40;99.90;;;;;;4979876;28;20074;-79
2021/12/24 07:42:43;;;;;;;5.90;3.15;;;-1.40;99.90;;;;;;4957556;28;20101;-80
2021/12/24 07:45:12;;;;;;;6.28;4.13;;;-1.40;99.90;;;;;;4990937;28;20148;-75
2021/12/24 07:47:42;;;;;;;4.68;3.05;;;-1.40;99.90;;;;;;4985125;28;20054;-76
2021/12/24 07:51:55;;;;;;;4.68;3.25;;;-1.40;99.90;;;;;;4981709;28;20050;-76
2021/12/24 07:53:04;;;;;;;5.18;3.58;;;-1.40;99.90;;;;;;4986734;28;20050;-76
2021/12/24 07:55:34;;;;;;;9.52;4.53;;;-1.40;99.90;;;;;;4975826;28;20129;-77
2021/12/24 07:58:02;;;;;;;8.25;5.20;;;-1.40;99.90;;;;;;4988519;28;20594;-80
2021/12/24 08:00:31;;;;;;;6.47;3.40;;;-1.30;99.90;;;;;;4985448;28;20082;-81
2021/12/24 08:03:01;;;;;;;6.55;3.13;;;-1.40;99.90;;;;;;4986755;28;20059;-82
2021/12/24 08:05:29;;;;;;;6.20;2.95;;;-1.50;99.90;;;;;;4978023;28;20057;-83
2021/12/24 08:07:56;;;;;;;4.28;2.55;;;-1.60;99.90;;;;;;4991378;28;20042;-83
2021/12/24 08:10:27;;;;;;;8.10;5.10;;;-1.80;99.90;;;;;;4988677;28;20054;-83
2021/12/24 08:12:54;;;;;;;3.10;2.25;;;-1.90;99.90;;;;;;4987349;28;20090;-80
2021/12/24 08:15:22;;;;;;;2.63;2.00;;;-2.00;99.90;;;;;;4986092;28;20058;-81
2021/12/24 08:17:51;;;;;;;3.17;2.03;;;-2.20;99.90;;;;;;4987855;28;20050;-81
2021/12/24 08:20:23;;;;;;;1.52;1.33;;;-2.30;99.90;;;;;;4991145;28;20519;-81
2021/12/24 08:22:55;;;;;;;3.60;1.90;;;-2.40;99.90;;;;;;4987774;28;20050;-81
2021/12/24 08:25:25;;;;;;;5.38;1.85;;;-2.50;99.90;;;;;;4988734;28;20582;-80
2021/12/24 08:27:54;;;;;;;2.20;1.65;;;-2.60;99.90;;;;;;4988768;28;20050;-82
2021/12/24 08:30:22;;;;;;;4.88;2.22;;;-2.60;99.90;;;;;;4988017;28;20074;-84
2021/12/24 08:32:51;;;;;;;5.32;2.95;;;-2.70;99.90;;;;;;4983879;28;20055;-80
2021/12/24 08:35:21;;;;;;;5.20;1.38;;;-2.80;99.90;;;;;;4988373;28;20205;-81
2021/12/24 08:37:49;;;;;;;3.42;1.90;;;-2.80;99.90;;;;;;4987422;28;20085;-80
2021/12/24 08:40:17;;;;;;;4.93;3.42;;;-2.90;99.90;;;;;;4988998;28;20057;-83
2021/12/24 08:42:45;;;;;;;2.85;1.77;;;-3.00;99.90;;;;;;4970740;28;20043;-84
2021/12/24 08:45:13;;;;;;;4.88;1.85;;;-3.00;99.90;;;;;;4974750;28;20070;-82
2021/12/24 08:47:41;;;;;;;2.38;1.85;;;-3.00;99.90;;;;;;4978564;28;20413;-83
2021/12/24 08:50:13;;;;;;;2.00;1.38;;;-3.00;99.90;;;;;;4990191;28;20056;-84
2021/12/24 08:52:45;;;;;;;5.20;1.50;;;-3.10;99.90;;;;;;4988453;28;20509;-82
2021/12/24 08:55:12;;;;;;;2.15;1.30;;;-3.10;99.90;;;;;;4989802;28;20101;-85
2021/12/24 08:57:41;;;;;;;4.05;1.70;;;-3.20;99.90;;;;;;4989140;28;20042;-84
2021/12/24 09:00:13;;;;;;;2.78;1.65;;;-3.20;99.90;;;;;;4990152;28;20117;-81
2021/12/24 09:02:42;;;;;;;3.33;1.73;;;-3.20;99.90;;;;;;5005985;28;20113;-82
2021/12/24 09:05:13;;;;;;;3.95;1.50;;;-3.10;99.90;;;;;;4990432;28;20051;-82
2021/12/24 09:07:44;;;;;;;2.30;1.60;;;-3.10;99.90;;;;;;4975610;28;20078;-80
2021/12/24 09:10:13;;;;;;;4.05;1.50;;;-3.10;99.90;;;;;;4986068;28;20137;-79
2021/12/24 09:12:43;;;;;;;4.57;1.83;;;-3.10;99.90;;;;;;4971667;28;20042;-80
2021/12/24 09:15:12;;;;;;;3.30;1.88;;;-3.10;99.90;;;;;;4989811;28;20458;-79
2021/12/24 09:17:44;;;;;;;3.47;1.90;;;-3.10;99.90;;;;;;4989476;28;20073;-81
2021/12/24 09:20:21;;;;;;;2.70;2.20;;;-3.10;99.90;;;;;;4987407;28;20050;-82
2021/12/24 09:22:49;;;;;;;3.58;2.00;;;-3.10;99.90;;;;;;4982308;28;20193;-82
2021/12/24 09:25:18;;;;;;;3.75;1.85;;;-3.10;99.90;;;;;;4991088;28;20185;-82
2021/12/24 09:27:46;;;;;;;2.40;1.77;;;-3.10;99.90;;;;;;4977138;28;20054;-81
2021/12/24 09:30:14;;;;;;;7.03;2.65;;;-3.10;99.90;;;;;;4991714;28;20054;-83
2021/12/24 09:32:44;;;;;;;2.80;2.00;;;-3.10;99.90;;;;;;4992373;28;20077;-80
2021/12/24 09:35:13;;;;;;;3.20;2.30;;;-3.20;99.90;;;;;;4992916;28;20506;-80
2021/12/24 09:37:43;;;;;;;3.58;1.58;;;-3.20;99.90;;;;;;4993154;28;20073;-83
2021/12/24 09:40:15;;;;;;;4.45;1.45;;;-3.20;99.90;;;;;;4994448;28;20078;-82
2021/12/24 09:42:44;;;;;;;2.45;1.45;;;-3.30;99.90;;;;;;4993390;28;20411;-83
2021/12/24 09:45:13;;;;;;;5.35;1.52;;;-3.30;99.90;;;;;;4994038;28;20426;-82
2021/12/24 09:47:43;;;;;;;3.83;1.33;;;-3.30;99.90;;;;;;4993426;28;20061;-83
2021/12/24 09:50:17;;;;;;;2.30;1.33;;;-3.40;99.90;;;;;;4992326;28;20450;-84
2021/12/24 09:52:45;;;;;;;1.85;1.05;;;-3.40;99.90;;;;;;4989369;28;20046;-80
2021/12/24 09:55:17;;;;;;;1.95;0.95;;;-3.50;99.90;;;;;;4976975;28;20110;-80
2021/12/24 09:57:45;;;;;;;1.42;0.80;;;-3.60;99.90;;;;;;4981661;28;20082;-82
2021/12/24 10:00:16;;;;;;;4.05;1.05;;;-3.60;99.90;;;;;;4993695;28;20065;-80
2021/12/24 10:02:48;;;;;;;2.97;1.02;;;-3.70;99.90;;;;;;4992585;28;20129;-80
2021/12/24 10:05:36;;;;;;;3.47;0.98;;;-3.80;99.90;;;;;;4993283;28;20064;-78
2021/12/24 10:08:15;;;;;;;3.05;0.90;;;-3.70;99.90;;;;;;4993040;28;20058;-83
2021/12/24 10:10:50;;;;;;;2.38;0.85;;;-3.80;99.90;;;;;;4993371;28;20085;-83
2021/12/24 10:13:31;;;;;;;2.38;1.48;;;-3.80;99.90;;;;;;5007447;28;20549;-81
2021/12/24 10:16:03;;;;;;;2.03;1.38;;;-3.90;99.90;;;;;;4977791;28;20078;-82
2021/12/24 10:18:42;;;;;;;1.77;1.00;;;-3.90;99.90;;;;;;4991024;28;20053;-80
2021/12/24 10:21:14;;;;;;;3.80;1.23;;;-3.90;99.90;;;;;;4989577;28;20060;-81
2021/12/24 10:23:52;;;;;;;5.13;2.30;;;-3.90;99.90;;;;;;4993400;28;20054;-80
2021/12/24 10:26:33;;;;;;;4.45;1.85;;;-4.00;99.90;;;;;;4991920;28;20306;-82
2021/12/24 10:29:05;;;;;;;1.83;1.40;;;-4.00;99.90;;;;;;4991390;28;20099;-81
2021/12/24 10:31:37;;;;;;;2.50;2.03;;;-4.00;99.90;;;;;;4992436;28;20088;-81
2021/12/24 10:34:14;;;;;;;5.95;1.80;;;-4.00;99.90;;;;;;4988733;28;20050;-80
2021/12/24 10:37:01;;;;;;;3.67;2.30;;;-4.00;99.90;;;;;;4992823;28;20082;-79
2021/12/24 10:39:34;;;;;;;3.75;1.88;;;-4.00;99.90;;;;;;4991700;28;20161;-79
2021/12/24 10:42:06;;;;;;;5.30;2.67;;;-4.00;99.90;;;;;;4975693;28;20054;-80
2021/12/24 10:44:37;;;;;;;4.90;2.37;;;-4.00;99.90;;;;;;4984689;28;20145;-81
2021/12/24 10:47:12;;;;;;;2.60;1.58;;;-4.00;99.90;;;;;;4993141;28;20050;-81
2021/12/24 10:55:31;;;;;;;6.10;1.20;;;-4.00;99.90;;;;;;4989068;28;20054;-81
2021/12/24 10:58:14;;;;;;;1.33;1.05;;;-4.00;99.90;;;;;;4991061;28;20089;-80
2021/12/24 11:00:49;;;;;;;2.00;1.40;;;-4.00;99.90;;;;;;4990579;28;20105;-80
2021/12/24 11:03:22;;;;;;;2.88;1.45;;;-4.00;99.90;;;;;;4989714;28;20054;-82
2021/12/24 11:05:52;;;;;;;3.20;1.40;;;-4.10;99.90;;;;;;4991807;28;20077;-80
2021/12/24 11:08:26;;;;;;;5.20;1.90;;;-4.00;99.90;;;;;;4989763;28;20089;-81
2021/12/24 11:10:58;;;;;;;3.50;1.52;;;-4.10;99.90;;;;;;4986264;28;20062;-76
2021/12/24 11:13:31;;;;;;;3.95;1.38;;;-4.10;99.90;;;;;;4987356;28;20426;-81
2021/12/24 11:16:02;;;;;;;9.65;2.72;;;-4.10;99.90;;;;;;4983465;28;20052;-82
2021/12/24 11:18:34;;;;;;;9.38;5.88;;;-4.10;99.90;;;;;;4984294;28;20057;-83
2021/12/24 11:21:05;;;;;;;4.25;1.83;;;-4.20;99.90;;;;;;4988182;28;20133;-81
2021/12/24 11:23:38;;;;;;;7.18;3.00;;;-4.20;99.90;;;;;;4981033;28;20085;-82
2021/12/24 11:26:10;;;;;;;7.05;2.40;;;-4.20;99.90;;;;;;4997896;28;20465;-85
2021/12/24 11:28:38;;;;;;;5.97;2.15;;;-4.20;99.90;;;;;;4991154;28;20522;-83
2021/12/24 11:31:08;;;;;;;10.45;2.40;;;-4.20;99.90;;;;;;4992266;28;20104;-77
2021/12/24 11:33:42;;;;;;;4.35;2.10;;;-4.20;99.90;;;;;;4974786;28;20050;-77
2021/12/24 11:36:13;;;;;;;5.88;2.33;;;-4.30;99.90;;;;;;4985746;28;20085;-80
2021/12/24 11:38:45;;;;;;;6.20;2.15;;;-4.30;99.90;;;;;;4986477;28;20418;-80
2021/12/24 11:41:17;;;;;;;6.97;2.30;;;-4.20;99.90;;;;;;5001665;28;20072;-80
2021/12/24 11:43:47;;;;;;;3.10;1.60;;;-4.20;99.90;;;;;;4990554;28;20057;-82
2021/12/24 11:46:21;;;;;;;4.30;2.20;;;-4.20;99.90;;;;;;4991048;28;20054;-82
2021/12/24 11:48:53;;;;;;;5.63;2.33;;;-4.20;99.90;;;;;;4991592;28;20061;-80
2021/12/24 11:51:25;;;;;;;6.03;2.28;;;-4.30;99.90;;;;;;4990801;28;20109;-81
2021/12/24 11:53:59;;;;;;;5.85;1.83;;;-4.30;99.90;;;;;;4987800;28;20053;-81
2021/12/24 11:56:27;;;;;;;3.63;1.73;;;-4.40;99.90;;;;;;4987209;28;20054;-83
2021/12/24 11:58:58;;;;;;;4.35;1.48;;;-4.50;99.90;;;;;;4987583;28;20053;-84
2021/12/24 12:01:29;;;;;;;5.25;2.15;;;-4.50;99.90;;;;;;4991023;28;20082;-81
2021/12/24 12:03:58;;;;;;;4.65;1.75;;;-4.50;99.90;;;;;;4996062;28;20069;-83
2021/12/24 12:06:36;;;;;;;7.63;1.85;;;-4.50;99.90;;;;;;4991302;28;20056;-82
2021/12/24 12:09:10;;;;;;;3.53;1.80;;;-4.50;99.90;;;;;;4991738;28;20050;-84
2021/12/24 12:11:41;;;;;;;4.00;2.28;;;-4.60;99.90;;;;;;4985318;28;20535;-81
2021/12/24 12:14:28;;;;;;;3.88;2.42;;;-4.60;99.90;;;;;;5002714;28;20062;-83
2021/12/24 12:16:57;;;;;;;3.20;2.35;;;-4.60;99.90;;;;;;4980808;28;20050;-85
2021/12/24 12:19:29;;;;;;;10.00;2.92;;;-4.60;99.90;;;;;;4989514;28;20046;-85
2021/12/24 12:22:17;;;;;;;11.32;3.25;;;-4.70;99.90;;;;;;4990428;28;20513;-85
2021/12/24 12:27:39;;;;;;;3.88;2.75;;;-4.70;99.90;;;;;;4988027;28;20077;-78
2021/12/24 12:30:27;;;;;;;7.85;2.95;;;-4.70;99.90;;;;;;4988628;28;20142;-81
2021/12/24 12:33:09;;;;;;;4.70;2.42;;;-4.70;99.90;;;;;;4989441;28;20058;-83
2021/12/24 12:35:42;;;;;;;4.72;2.20;;;-4.70;99.90;;;;;;4988724;28;20057;-79
2021/12/24 12:38:31;;;;;;;7.28;3.05;;;-4.70;99.90;;;;;;4987417;28;20073;-80
2021/12/24 12:41:30;;;;;;;6.00;2.53;;;-4.70;99.90;;;;;;4977921;28;20618;-79
2021/12/24 12:44:04;;;;;;;5.43;2.88;;;-4.70;99.90;;;;;;4985809;28;20061;-79
2021/12/24 12:46:34;;;;;;;5.25;2.40;;;-4.80;99.90;;;;;;4989072;28;20757;-79
2021/12/24 12:49:05;;;;;;;5.90;2.00;;;-4.80;99.90;;;;;;4986484;28;20062;-83
2021/12/24 12:51:53;;;;;;;7.80;2.80;;;-4.80;99.90;;;;;;4981140;28;20097;-84
2021/12/24 12:54:48;;;;;;;2.25;1.55;;;-4.90;99.90;;;;;;4983683;28;20608;-80
2021/12/24 12:57:32;;;;;;;5.53;1.55;;;-5.00;99.90;;;;;;4986470;28;20050;-81
2021/12/24 13:00:20;;;;;;;24.02;4.25;;;-4.90;99.90;;;;;;4993490;28;20146;-80
2021/12/24 13:03:10;;;;;;;4.38;1.48;;;-4.70;99.90;;;;;;4993356;28;20073;-81
2021/12/24 13:06:02;;;;;;;1.85;1.08;;;-4.80;99.90;;;;;;4990965;28;20430;-82
2021/12/24 13:08:35;;;;;;;2.65;0.95;;;-4.90;99.90;;;;;;4992128;28;20443;-82
2021/12/24 13:11:11;;;;;;;2.50;1.45;;;-5.00;99.90;;;;;;4993302;28;20830;-84
2021/12/24 13:13:55;;;;;;;8.07;2.72;;;-5.10;99.90;;;;;;4990750;28;20507;-86
2021/12/24 13:16:31;;;;;;;4.05;2.10;;;-5.20;99.90;;;;;;4987547;28;20108;-82
2021/12/24 13:19:24;;;;;;;6.43;2.90;;;-5.30;99.90;;;;;;4990357;28;20058;-83
2021/12/24 13:24:48;;;;;;;2.58;1.85;;;-5.40;99.90;;;;;;4992115;28;20443;-83
2021/12/24 13:27:23;;;;;;;5.00;2.60;;;-5.40;99.90;;;;;;4993885;28;20054;-84
2021/12/24 13:30:10;;;;;;;7.35;3.42;;;-5.40;99.90;;;;;;4991855;28;20046;-83
2021/12/24 13:32:44;;;;;;;5.80;2.53;;;-5.40;99.90;;;;;;4986347;28;20518;-82
2021/12/24 13:35:21;;;;;;;3.25;1.42;;;-5.50;99.90;;;;;;4979348;28;20061;-84
2021/12/24 13:37:50;;;;;;;7.47;1.45;;;-5.50;99.90;;;;;;4977014;28;20464;-89
2021/12/24 13:40:22;;;;;;;4.38;1.73;;;-5.60;99.90;;;;;;4977766;28;20393;-85
2021/12/24 13:42:52;;;;;;;2.42;1.10;;;-5.60;99.90;;;;;;4986185;28;20078;-84
2021/12/24 13:45:26;;;;;;;4.07;1.35;;;-5.70;99.90;;;;;;4975005;28;20081;-85
2021/12/24 13:48:01;;;;;;;4.72;1.73;;;-5.70;99.90;;;;;;4987870;28;20054;-84
2021/12/24 13:56:00;;;;;;;4.60;1.45;;;-5.70;99.90;;;;;;4983023;28;20046;-89
2021/12/24 13:58:27;;;;;;;3.38;1.50;;;-5.80;99.90;;;;;;4995507;28;20058;-84
2021/12/24 14:01:00;;;;;;;2.70;1.27;;;-5.80;99.90;;;;;;4993355;28;20052;-79
2021/12/24 14:03:30;;;;;;;3.95;1.70;;;-5.80;99.90;;;;;;4989300;28;20383;-77
2021/12/24 14:06:02;;;;;;;5.32;1.60;;;-5.80;99.90;;;;;;4989306;28;20061;-78
2021/12/24 14:08:32;;;;;;;5.43;2.75;;;-5.80;99.90;;;;;;4994462;28;20113;-77
2021/12/24 14:11:11;;;;;;;8.07;2.40;;;-5.80;99.90;;;;;;4989635;28;20097;-77
2021/12/24 14:13:43;;;;;;;2.97;1.58;;;-5.70;99.90;;;;;;4985079;28;20065;-77
2021/12/24 14:16:34;;;;;;;1.63;1.17;;;-5.70;99.90;;;;;;4978289;28;20582;-78
2021/12/24 14:19:13;;;;;;;2.03;0.80;;;-5.70;99.90;;;;;;4993275;28;20058;-77
2021/12/24 14:21:47;;;;;;;2.17;1.33;;;-5.70;99.90;;;;;;4990583;28;20062;-78
2021/12/24 14:24:22;;;;;;;2.33;1.17;;;-5.70;99.90;;;;;;4984222;28;20144;-76
2021/12/24 14:26:56;;;;;;;3.95;1.77;;;-5.70;99.90;;;;;;4987650;28;20593;-78
2021/12/24 14:29:35;;;;;;;5.22;1.40;;;-5.70;99.90;;;;;;4986128;28;20057;-78
2021/12/24 14:32:09;;;;;;;2.72;1.42;;;-5.70;99.90;;;;;;4992246;28;20511;-76
2021/12/24 14:34:48;;;;;;;4.93;1.38;;;-5.80;99.90;;;;;;4992871;28;20051;-76